createdAt,value
2017-12-13T00:00:53.264Z,0.98
2017-12-13T00:01:53.278Z,0.94
2017-12-13T00:02:53.319Z,0.89
2017-12-13T00:03:53.377Z,0.82
2017-12-13T00:04:53.401Z,0.79
2017-12-13T00:05:53.468Z,0.88
2017-12-13T00:06:53.483Z,0.85
2017-12-13T00:07:53.521Z,0.83
2017-12-13T00:08:53.563Z,0.80
2017-12-13T00:09:53.600Z,0.72
2017-12-13T00:10:53.656Z,0.70
2017-12-13T00:11:53.683Z,0.71
2017-12-13T00:12:53.723Z,0.68
2017-12-13T00:13:53.767Z,0.45
2017-12-13T00:14:53.802Z,0.42
2017-12-13T00:15:53.857Z,0.33
2017-12-13T00:16:53.888Z,0.28
2017-12-13T00:17:53.920Z,0.23
2017-12-13T00:18:53.960Z,0.24
2017-12-13T00:19:54.000Z,0.27
2017-12-13T00:20:54.060Z,0.21
2017-12-13T00:21:54.099Z,0.13
2017-12-13T00:22:54.121Z,0.06
2017-12-13T00:23:54.161Z,0.07
2017-12-13T00:24:54.210Z,0.02
2017-12-13T00:25:54.261Z,0.07
2017-12-13T00:26:54.280Z,0.02
2017-12-13T00:27:54.319Z,0.03
2017-12-13T00:28:54.358Z,0.07
2017-12-13T00:29:54.398Z,-0.01
2017-12-13T00:30:54.458Z,-0.01
2017-12-13T00:31:54.480Z,-0.12
2017-12-13T00:32:54.517Z,-0.09
2017-12-13T00:33:54.559Z,-0.13
2017-12-13T00:34:54.598Z,-0.18
2017-12-13T00:35:54.652Z,-0.22
2017-12-13T00:36:54.694Z,-0.19
2017-12-13T00:37:54.716Z,-0.16
2017-12-13T00:38:54.756Z,-0.19
2017-12-13T00:39:54.794Z,-0.26
2017-12-13T00:40:54.838Z,-0.16
2017-12-13T00:41:54.892Z,-0.12
2017-12-13T00:42:54.922Z,-0.15
2017-12-13T00:43:54.956Z,-0.24
2017-12-13T00:44:54.991Z,-0.23
2017-12-13T00:45:55.032Z,-0.18
2017-12-13T00:46:55.089Z,-0.22
2017-12-13T00:47:55.110Z,-0.11
2017-12-13T00:48:55.154Z,-0.16
2017-12-13T00:49:55.188Z,-0.24
2017-12-13T00:50:55.228Z,-0.33
2017-12-13T00:51:55.291Z,-0.36
2017-12-13T00:52:55.311Z,-0.30
2017-12-13T00:53:55.349Z,-0.30
2017-12-13T00:54:55.388Z,-0.33
2017-12-13T00:55:55.428Z,-0.33
2017-12-13T00:56:55.479Z,-0.30
2017-12-13T00:57:55.522Z,-0.41
2017-12-13T00:58:55.545Z,-0.39
2017-12-13T00:59:55.586Z,-0.44
2017-12-13T01:00:55.621Z,-0.47
2017-12-13T01:01:55.678Z,-0.29
2017-12-13T01:02:55.701Z,-0.44
2017-12-13T01:03:55.739Z,-0.34
2017-12-13T01:04:55.789Z,-0.29
2017-12-13T01:05:55.822Z,-0.27
2017-12-13T01:06:55.882Z,-0.15
2017-12-13T01:07:55.918Z,-0.08
2017-12-13T01:08:55.935Z,-0.01
2017-12-13T01:09:55.975Z,-0.01
2017-12-13T01:10:56.014Z,-0.05
2017-12-13T01:11:56.053Z,-0.11
2017-12-13T01:12:56.109Z,-0.12
2017-12-13T01:13:56.152Z,-0.09
2017-12-13T01:14:56.172Z,-0.08
2017-12-13T01:15:56.209Z,-0.09
2017-12-13T01:16:56.264Z,-0.01
2017-12-13T01:17:56.288Z,-0.01
2017-12-13T01:18:56.343Z,0.00
2017-12-13T01:19:56.366Z,-0.06
2017-12-13T01:20:56.406Z,-0.06
2017-12-13T01:21:56.446Z,-0.09
2017-12-13T01:22:56.493Z,-0.12
2017-12-13T01:23:56.540Z,-0.13
2017-12-13T01:24:56.565Z,-0.15
2017-12-13T01:25:56.604Z,-0.16
2017-12-13T01:26:56.667Z,-0.19
2017-12-13T01:27:56.680Z,-0.29
2017-12-13T01:28:56.736Z,-0.23
2017-12-13T01:29:56.768Z,-0.19
2017-12-13T01:30:56.799Z,-0.16
2017-12-13T01:31:56.838Z,-0.11
2017-12-13T01:32:56.879Z,-0.13
2017-12-13T01:33:56.933Z,-0.11
2017-12-13T01:34:56.959Z,-0.01
2017-12-13T01:35:56.996Z,-0.12
2017-12-13T01:36:57.035Z,-0.05
2017-12-13T01:37:57.075Z,-0.05
2017-12-13T01:38:57.140Z,-0.09
2017-12-13T01:39:57.168Z,-0.05
2017-12-13T01:40:57.193Z,-0.08
2017-12-13T01:41:57.229Z,-0.06
2017-12-13T01:42:57.268Z,-0.05
2017-12-13T01:43:57.309Z,-0.12
2017-12-13T01:44:57.366Z,-0.22
2017-12-13T01:45:57.390Z,-0.19
2017-12-13T01:46:57.428Z,-0.19
2017-12-13T01:47:57.475Z,-0.26
2017-12-13T01:48:57.504Z,-0.15
2017-12-13T01:49:57.561Z,-0.15
2017-12-13T01:50:58.348Z,-0.22
2017-12-13T01:51:57.623Z,-0.18
2017-12-13T01:52:57.661Z,-0.27
2017-12-13T01:53:57.700Z,-0.23
2017-12-13T01:54:57.761Z,-0.18
2017-12-13T01:55:57.779Z,-0.16
2017-12-13T01:56:57.814Z,-0.24
2017-12-13T01:57:57.855Z,-0.26
2017-12-13T01:58:57.899Z,-0.27
2017-12-13T01:59:57.959Z,-0.19
2017-12-13T02:00:57.974Z,-0.23
2017-12-13T02:01:58.015Z,-0.18
2017-12-13T02:02:58.051Z,-0.22
2017-12-13T02:03:58.092Z,-0.26
2017-12-13T02:04:58.153Z,-0.27
2017-12-13T02:05:58.170Z,-0.26
2017-12-13T02:06:58.210Z,-0.24
2017-12-13T02:07:58.248Z,-0.24
2017-12-13T02:08:58.291Z,-0.29
2017-12-13T02:09:58.344Z,-0.39
2017-12-13T02:10:58.367Z,-0.41
2017-12-13T02:11:58.405Z,-0.41
2017-12-13T02:12:58.446Z,-0.44
2017-12-13T02:13:58.485Z,-0.34
2017-12-13T02:14:58.540Z,-0.34
2017-12-13T02:15:58.562Z,-0.45
2017-12-13T02:16:58.611Z,-0.45
2017-12-13T02:17:58.639Z,-0.45
2017-12-13T02:18:58.682Z,-0.42
2017-12-13T02:19:58.741Z,-0.45
2017-12-13T02:20:58.764Z,-0.47
2017-12-13T02:21:58.798Z,-0.45
2017-12-13T02:22:58.846Z,-0.41
2017-12-13T02:23:58.876Z,-0.41
2017-12-13T02:24:58.933Z,-0.37
2017-12-13T02:25:58.952Z,-0.47
2017-12-13T02:26:58.992Z,-0.33
2017-12-13T02:27:59.033Z,-0.44
2017-12-13T02:28:59.072Z,-0.42
2017-12-13T02:29:59.124Z,-0.45
2017-12-13T02:30:59.155Z,-0.44
2017-12-13T02:31:59.189Z,-0.34
2017-12-13T02:32:59.247Z,-0.31
2017-12-13T02:33:59.266Z,-0.34
2017-12-13T02:34:59.303Z,-0.30
2017-12-13T02:35:59.349Z,-0.29
2017-12-13T02:36:59.384Z,-0.36
2017-12-13T02:37:59.440Z,-0.27
2017-12-13T02:38:59.461Z,-0.29
2017-12-13T02:39:59.499Z,-0.33
2017-12-13T02:40:59.560Z,-0.31
2017-12-13T02:41:59.577Z,-0.37
2017-12-13T02:42:59.622Z,-0.33
2017-12-13T02:43:59.656Z,-0.33
2017-12-13T02:44:59.694Z,-0.30
2017-12-13T02:45:59.748Z,-0.31
2017-12-13T02:46:59.774Z,-0.33
2017-12-13T02:47:59.815Z,-0.42
2017-12-13T02:48:59.867Z,-0.31
2017-12-13T02:49:59.892Z,-0.41
2017-12-13T02:50:59.929Z,-0.41
2017-12-13T02:51:59.968Z,-0.37
2017-12-13T02:53:00.007Z,-0.44
2017-12-13T02:54:00.067Z,-0.41
2017-12-13T02:55:00.087Z,-0.42
2017-12-13T02:56:00.145Z,-0.44
2017-12-13T02:57:00.165Z,-0.45
2017-12-13T02:58:00.205Z,-0.47
2017-12-13T02:59:00.239Z,-0.44
2017-12-13T03:00:00.279Z,-0.42
2017-12-13T03:01:00.342Z,-0.39
2017-12-13T03:02:00.358Z,-0.30
2017-12-13T03:03:00.396Z,-0.33
2017-12-13T03:04:00.453Z,-0.27
2017-12-13T03:05:00.475Z,-0.26
2017-12-13T03:06:00.537Z,-0.18
2017-12-13T03:07:00.552Z,-0.24
2017-12-13T03:08:00.592Z,-0.23
2017-12-13T03:09:00.650Z,-0.27
2017-12-13T03:10:00.673Z,-0.27
2017-12-13T03:11:00.726Z,-0.31
2017-12-13T03:12:00.748Z,-0.33
2017-12-13T03:13:00.787Z,-0.26
2017-12-13T03:14:00.827Z,-0.22
2017-12-13T03:15:00.864Z,-0.23
2017-12-13T03:16:00.924Z,-0.23
2017-12-13T03:17:00.972Z,-0.19
2017-12-13T03:18:00.981Z,-0.16
2017-12-13T03:19:01.020Z,-0.12
2017-12-13T03:20:01.061Z,-0.11
2017-12-13T03:21:01.124Z,-0.15
2017-12-13T03:22:01.144Z,-0.15
2017-12-13T03:23:01.176Z,-0.12
2017-12-13T03:24:01.232Z,-0.16
2017-12-13T03:25:01.255Z,-0.11
2017-12-13T03:26:01.296Z,-0.18
2017-12-13T03:27:01.334Z,-0.29
2017-12-13T03:28:01.371Z,-0.18
2017-12-13T03:29:01.428Z,-0.18
2017-12-13T03:30:01.451Z,-0.27
2017-12-13T03:31:01.490Z,-0.27
2017-12-13T03:32:01.528Z,-0.34
2017-12-13T03:33:01.587Z,-0.31
2017-12-13T03:34:01.608Z,-0.27
2017-12-13T03:35:01.647Z,-0.33
2017-12-13T03:36:01.687Z,-0.29
2017-12-13T03:37:01.723Z,-0.33
2017-12-13T03:38:01.782Z,-0.26
2017-12-13T03:39:01.804Z,-0.36
2017-12-13T03:40:01.841Z,-0.34
2017-12-13T03:41:01.883Z,-0.34
2017-12-13T03:42:01.919Z,-0.29
2017-12-13T03:43:01.974Z,-0.30
2017-12-13T03:44:02.003Z,-0.30
2017-12-13T03:45:02.037Z,-0.29
2017-12-13T03:46:02.078Z,-0.34
2017-12-13T03:47:02.115Z,-0.37
2017-12-13T03:48:02.171Z,-0.31
2017-12-13T03:49:02.194Z,-0.31
2017-12-13T03:50:02.232Z,-0.30
2017-12-13T03:51:02.288Z,-0.33
2017-12-13T03:52:02.312Z,-0.31
2017-12-13T03:53:02.348Z,-0.29
2017-12-13T03:54:02.402Z,-0.27
2017-12-13T03:55:02.427Z,-0.29
2017-12-13T03:56:02.467Z,-0.33
2017-12-13T03:57:02.520Z,-0.29
2017-12-13T03:58:02.547Z,-0.31
2017-12-13T03:59:02.601Z,-0.27
2017-12-13T04:00:02.621Z,-0.30
2017-12-13T04:01:02.660Z,-0.33
2017-12-13T04:02:02.707Z,-0.34
2017-12-13T04:03:02.740Z,-0.33
2017-12-13T04:04:02.796Z,-0.33
2017-12-13T04:05:02.817Z,-0.37
2017-12-13T04:06:02.856Z,-0.41
2017-12-13T04:07:02.899Z,-0.42
2017-12-13T04:08:02.934Z,-0.37
2017-12-13T04:09:02.993Z,-0.47
2017-12-13T04:10:03.015Z,-0.39
2017-12-13T04:11:03.052Z,-0.42
2017-12-13T04:12:03.096Z,-0.42
2017-12-13T04:13:03.132Z,-0.42
2017-12-13T04:14:03.189Z,-0.42
2017-12-13T04:15:03.207Z,-0.52
2017-12-13T04:16:03.254Z,-0.52
2017-12-13T04:17:03.286Z,-0.45
2017-12-13T04:18:03.328Z,-0.55
2017-12-13T04:19:03.379Z,-0.60
2017-12-13T04:20:03.424Z,-0.52
2017-12-13T04:21:03.442Z,-0.52
2017-12-13T04:22:03.481Z,-0.59
2017-12-13T04:23:03.530Z,-0.47
2017-12-13T04:24:03.629Z,-0.60
2017-12-13T04:25:03.620Z,-0.57
2017-12-13T04:26:03.635Z,-0.62
2017-12-13T04:27:03.677Z,-0.62
2017-12-13T04:28:03.715Z,-0.55
2017-12-13T04:29:03.756Z,-0.63
2017-12-13T04:30:03.812Z,-0.55
2017-12-13T04:31:03.831Z,-0.63
2017-12-13T04:32:03.877Z,-0.63
2017-12-13T04:33:03.909Z,-0.55
2017-12-13T04:34:03.949Z,-0.65
2017-12-13T04:35:04.004Z,-0.65
2017-12-13T04:36:04.043Z,-0.57
2017-12-13T04:37:04.066Z,-0.68
2017-12-13T04:38:04.109Z,-0.75
2017-12-13T04:39:04.152Z,-0.66
2017-12-13T04:40:04.185Z,-0.66
2017-12-13T04:41:04.238Z,-0.68
2017-12-13T04:42:04.261Z,-0.69
2017-12-13T04:43:04.301Z,-0.78
2017-12-13T04:44:04.339Z,-0.78
2017-12-13T04:45:04.377Z,-0.78
2017-12-13T04:46:04.432Z,-0.89
2017-12-13T04:47:04.454Z,-0.81
2017-12-13T04:48:04.493Z,-0.81
2017-12-13T04:49:04.534Z,-0.92
2017-12-13T04:50:04.570Z,-0.89
2017-12-13T04:51:04.639Z,-0.87
2017-12-13T04:52:04.657Z,-0.92
2017-12-13T04:53:04.687Z,-0.91
2017-12-13T04:54:04.725Z,-0.80
2017-12-13T04:55:04.764Z,-0.81
2017-12-13T04:56:04.819Z,-0.83
2017-12-13T04:57:04.838Z,-0.75
2017-12-13T04:58:04.879Z,-0.78
2017-12-13T04:59:04.920Z,-0.72
2017-12-13T05:00:04.959Z,-0.72
2017-12-13T05:01:05.014Z,-0.68
2017-12-13T05:02:05.035Z,-0.69
2017-12-13T05:03:05.076Z,-0.63
2017-12-13T05:04:05.118Z,-0.70
2017-12-13T05:05:05.156Z,-0.75
2017-12-13T05:06:05.656Z,-0.60
2017-12-13T05:07:05.233Z,-0.63
2017-12-13T05:08:05.268Z,-0.54
2017-12-13T05:09:05.307Z,-0.60
2017-12-13T05:10:05.350Z,-0.59
2017-12-13T05:11:05.384Z,-0.48
2017-12-13T05:12:05.439Z,-0.45
2017-12-13T05:13:05.469Z,-0.50
2017-12-13T05:14:05.500Z,-0.52
2017-12-13T05:15:05.540Z,-0.54
2017-12-13T05:16:05.582Z,-0.51
2017-12-13T05:17:05.632Z,-0.54
2017-12-13T05:18:05.674Z,-0.51
2017-12-13T05:19:05.702Z,-0.55
2017-12-13T05:20:05.730Z,-0.52
2017-12-13T05:21:05.771Z,-0.54
2017-12-13T05:22:05.810Z,-0.55
2017-12-13T05:23:05.865Z,-0.55
2017-12-13T05:24:05.888Z,-0.52
2017-12-13T05:25:05.926Z,-0.55
2017-12-13T05:26:05.965Z,-0.45
2017-12-13T05:27:06.005Z,-0.55
2017-12-13T05:28:06.066Z,-0.52
2017-12-13T05:29:06.087Z,-0.48
2017-12-13T05:30:06.121Z,-0.51
2017-12-13T05:31:06.160Z,-0.45
2017-12-13T05:32:06.196Z,-0.54
2017-12-13T05:33:06.260Z,-0.63
2017-12-13T05:34:06.275Z,-0.59
2017-12-13T05:35:06.312Z,-0.54
2017-12-13T05:36:06.352Z,-0.54
2017-12-13T05:37:06.392Z,-0.68
2017-12-13T05:38:06.450Z,-0.57
2017-12-13T05:39:06.469Z,-0.57
2017-12-13T05:40:06.506Z,-0.59
2017-12-13T05:41:06.545Z,-0.62
2017-12-13T05:42:06.584Z,-0.59
2017-12-13T05:43:06.641Z,-0.52
2017-12-13T05:44:06.678Z,-0.50
2017-12-13T05:45:06.728Z,-0.48
2017-12-13T05:46:06.739Z,-0.41
2017-12-13T05:47:06.776Z,-0.44
2017-12-13T05:48:06.823Z,-0.52
2017-12-13T05:49:06.872Z,-0.47
2017-12-13T05:50:06.890Z,-0.47
2017-12-13T05:51:06.935Z,-0.41
2017-12-13T05:52:06.970Z,-0.39
2017-12-13T05:53:07.010Z,-0.39
2017-12-13T05:54:07.060Z,-0.45
2017-12-13T05:55:07.087Z,-0.44
2017-12-13T05:56:07.129Z,-0.33
2017-12-13T05:57:07.164Z,-0.45
2017-12-13T05:58:07.203Z,-0.42
2017-12-13T05:59:07.257Z,-0.45
2017-12-13T06:00:07.296Z,-0.41
2017-12-13T06:01:07.320Z,-0.41
2017-12-13T06:02:07.358Z,-0.36
2017-12-13T06:03:07.396Z,-0.42
2017-12-13T06:04:07.452Z,-0.45
2017-12-13T06:05:07.492Z,-0.47
2017-12-13T06:06:07.512Z,-0.42
2017-12-13T06:07:07.551Z,-0.41
2017-12-13T06:08:07.592Z,-0.44
2017-12-13T06:09:07.630Z,-0.48
2017-12-13T06:10:07.736Z,-0.41
2017-12-13T06:11:07.706Z,-0.52
2017-12-13T06:12:07.743Z,-0.52
2017-12-13T06:13:07.790Z,-0.50
2017-12-13T06:14:07.822Z,-0.47
2017-12-13T06:15:07.883Z,-0.52
2017-12-13T06:16:07.914Z,-0.52
2017-12-13T06:17:07.937Z,-0.59
2017-12-13T06:18:07.978Z,-0.63
2017-12-13T06:19:08.014Z,-0.52
2017-12-13T06:20:08.053Z,-0.52
2017-12-13T06:21:08.116Z,-0.45
2017-12-13T06:22:08.131Z,-0.47
2017-12-13T06:23:08.184Z,-0.54
2017-12-13T06:24:08.208Z,-0.47
2017-12-13T06:25:08.247Z,-0.51
2017-12-13T06:26:08.285Z,-0.52
2017-12-13T06:27:08.323Z,-0.50
2017-12-13T06:28:08.378Z,-0.54
2017-12-13T06:29:08.400Z,-0.57
2017-12-13T06:30:08.440Z,-0.57
2017-12-13T06:31:08.478Z,-0.62
2017-12-13T06:32:08.516Z,-0.52
2017-12-13T06:33:08.571Z,-0.48
2017-12-13T06:34:08.593Z,-0.50
2017-12-13T06:35:08.629Z,-0.57
2017-12-13T06:36:08.674Z,-0.52
2017-12-13T06:37:08.710Z,-0.52
2017-12-13T06:38:08.763Z,-0.39
2017-12-13T06:39:08.804Z,-0.47
2017-12-13T06:40:08.826Z,-0.44
2017-12-13T06:41:08.866Z,-0.47
2017-12-13T06:42:08.903Z,-0.50
2017-12-13T06:43:08.958Z,-0.37
2017-12-13T06:44:08.979Z,-0.33
2017-12-13T06:45:09.021Z,-0.44
2017-12-13T06:46:09.055Z,-0.44
2017-12-13T06:47:09.094Z,-0.37
2017-12-13T06:48:09.149Z,-0.39
2017-12-13T06:49:09.194Z,-0.44
2017-12-13T06:50:09.212Z,-0.42
2017-12-13T06:51:09.251Z,-0.47
2017-12-13T06:52:09.292Z,-0.30
2017-12-13T06:53:09.351Z,-0.31
2017-12-13T06:54:09.365Z,-0.30
2017-12-13T06:55:09.420Z,-0.39
2017-12-13T06:56:09.443Z,-0.31
2017-12-13T06:57:09.482Z,-0.37
2017-12-13T06:58:09.519Z,-0.33
2017-12-13T06:59:09.559Z,-0.29
2017-12-13T07:00:09.612Z,-0.30
2017-12-13T07:01:09.634Z,-0.33
2017-12-13T07:02:09.675Z,-0.37
2017-12-13T07:03:09.712Z,-0.33
2017-12-13T07:04:09.766Z,-0.36
2017-12-13T07:05:09.789Z,-0.29
2017-12-13T07:06:09.831Z,-0.26
2017-12-13T07:07:09.868Z,-0.27
2017-12-13T07:08:09.909Z,-0.26
2017-12-13T07:09:09.969Z,-0.19
2017-12-13T07:10:09.982Z,-0.24
2017-12-13T07:11:10.041Z,-0.23
2017-12-13T07:12:10.061Z,-0.19
2017-12-13T07:13:10.100Z,-0.12
2017-12-13T07:14:10.152Z,-0.12
2017-12-13T07:15:10.180Z,-0.15
2017-12-13T07:16:10.233Z,-0.11
2017-12-13T07:17:10.254Z,-0.11
2017-12-13T07:18:10.292Z,-0.12
2017-12-13T07:19:10.333Z,-0.11
2017-12-13T07:20:10.397Z,-0.19
2017-12-13T07:21:10.431Z,-0.18
2017-12-13T07:22:10.450Z,-0.22
2017-12-13T07:23:10.487Z,-0.16
2017-12-13T07:24:10.525Z,-0.08
2017-12-13T07:25:10.583Z,0.02
2017-12-13T07:26:10.602Z,-0.04
2017-12-13T07:27:10.649Z,0.06
2017-12-13T07:28:10.680Z,0.10
2017-12-13T07:29:10.727Z,0.21
2017-12-13T07:30:10.772Z,0.21
2017-12-13T07:31:10.796Z,0.27
2017-12-13T07:32:10.851Z,0.46
2017-12-13T07:33:10.876Z,0.72
2017-12-13T07:34:10.914Z,0.85
2017-12-13T07:35:10.960Z,0.98
2017-12-13T07:36:11.016Z,0.92
2017-12-13T07:37:11.032Z,1.08
2017-12-13T07:38:11.068Z,0.94
2017-12-13T07:39:11.106Z,0.94
2017-12-13T07:40:11.149Z,0.98
2017-12-13T07:41:11.205Z,1.03
2017-12-13T07:42:11.226Z,0.98
2017-12-13T07:43:11.275Z,1.04
2017-12-13T07:44:11.307Z,1.08
2017-12-13T07:45:11.342Z,0.98
2017-12-13T07:46:11.398Z,1.14
2017-12-13T07:47:11.421Z,1.26
2017-12-13T07:48:11.458Z,1.29
2017-12-13T07:49:11.498Z,1.46
2017-12-13T07:50:11.549Z,1.75
2017-12-13T07:51:11.591Z,1.97
2017-12-13T07:52:11.616Z,2.53
2017-12-13T07:53:11.659Z,2.97
2017-12-13T07:54:11.708Z,3.36
2017-12-13T07:55:11.737Z,3.78
2017-12-13T07:56:11.776Z,4.12
2017-12-13T07:57:11.832Z,4.33
2017-12-13T07:58:11.856Z,4.65
2017-12-13T07:59:11.915Z,4.86
2017-12-13T08:00:11.937Z,4.95
2017-12-13T08:01:11.979Z,5.28
2017-12-13T08:02:12.036Z,5.28
2017-12-13T08:03:12.060Z,5.23
2017-12-13T08:04:12.120Z,5.50
2017-12-13T08:05:12.146Z,5.77
2017-12-13T08:06:12.187Z,5.91
2017-12-13T08:07:12.231Z,6.25
2017-12-13T08:08:12.287Z,6.19
2017-12-13T08:09:12.316Z,6.32
2017-12-13T08:10:12.363Z,6.68
2017-12-13T08:11:12.404Z,6.98
2017-12-13T08:12:12.449Z,6.79
2017-12-13T08:13:12.506Z,6.73
2017-12-13T08:14:12.528Z,6.94
2017-12-13T08:15:12.574Z,7.09
2017-12-13T08:16:12.618Z,7.38
2017-12-13T08:17:12.670Z,7.55
2017-12-13T08:18:13.138Z,7.85
2017-12-13T08:19:12.798Z,8.02
2017-12-13T08:20:12.795Z,8.12
2017-12-13T08:21:12.844Z,8.12
2017-12-13T08:22:12.887Z,8.12
2017-12-13T08:23:12.992Z,8.22
2017-12-13T08:24:12.990Z,8.35
2017-12-13T08:25:13.043Z,8.48
2017-12-13T08:26:13.067Z,8.63
2017-12-13T08:27:13.110Z,8.69
2017-12-13T08:28:13.179Z,8.72
2017-12-13T08:29:13.204Z,8.88
2017-12-13T08:30:13.246Z,8.83
2017-12-13T08:31:13.293Z,8.69
2017-12-13T08:32:13.339Z,8.60
2017-12-13T08:33:13.405Z,8.48
2017-12-13T08:34:13.432Z,8.33
2017-12-13T08:35:13.494Z,8.10
2017-12-13T08:36:13.526Z,7.85
2017-12-13T08:37:13.574Z,7.85
2017-12-13T08:38:13.619Z,7.78
2017-12-13T08:39:13.680Z,7.82
2017-12-13T08:40:13.712Z,7.77
2017-12-13T08:41:13.761Z,7.42
2017-12-13T08:42:13.806Z,6.99
2017-12-13T08:43:13.851Z,6.95
2017-12-13T08:44:13.915Z,6.95
2017-12-13T08:45:13.962Z,6.81
2017-12-13T08:46:13.988Z,6.83
2017-12-13T08:47:14.039Z,6.99
2017-12-13T08:48:14.082Z,6.72
2017-12-13T08:49:14.129Z,6.63
2017-12-13T08:50:14.189Z,6.56
2017-12-13T08:51:14.224Z,6.66
2017-12-13T08:52:14.274Z,6.56
2017-12-13T08:53:14.314Z,6.76
2017-12-13T08:54:14.365Z,6.87
2017-12-13T08:55:14.421Z,6.77
2017-12-13T08:56:14.453Z,6.76
2017-12-13T08:57:14.498Z,6.86
2017-12-13T08:58:14.545Z,6.89
2017-12-13T08:59:14.589Z,7.16
2017-12-13T09:00:14.660Z,7.09
2017-12-13T09:01:14.682Z,7.35
2017-12-13T09:02:14.729Z,7.62
2017-12-13T09:03:14.773Z,7.78
2017-12-13T09:04:14.820Z,8.14
2017-12-13T09:05:14.883Z,8.21
2017-12-13T09:06:14.912Z,8.48
2017-12-13T09:07:14.957Z,8.63
2017-12-13T09:08:15.004Z,8.81
2017-12-13T09:09:15.055Z,8.86
2017-12-13T09:10:15.122Z,8.84
2017-12-13T09:11:15.144Z,8.71
2017-12-13T09:12:15.189Z,8.66
2017-12-13T09:13:15.236Z,8.87
2017-12-13T09:14:15.280Z,8.83
2017-12-13T09:15:15.347Z,9.01
2017-12-13T09:16:15.400Z,8.96
2017-12-13T09:17:15.428Z,8.84
2017-12-13T09:18:15.471Z,8.86
2017-12-13T09:19:15.519Z,8.76
2017-12-13T09:20:15.573Z,8.81
2017-12-13T09:21:15.634Z,8.88
2017-12-13T09:22:15.663Z,8.91
2017-12-13T09:23:15.712Z,9.09
2017-12-13T09:24:15.761Z,9.16
2017-12-13T09:25:15.808Z,9.25
2017-12-13T09:26:15.873Z,8.99
2017-12-13T09:27:15.903Z,8.76
2017-12-13T09:28:15.955Z,8.76
2017-12-13T09:29:16.003Z,8.60
2017-12-13T09:30:16.053Z,8.54
2017-12-13T09:31:16.115Z,8.63
2017-12-13T09:32:16.150Z,8.28
2017-12-13T09:33:16.200Z,8.04
2017-12-13T09:34:16.247Z,8.20
2017-12-13T09:35:16.295Z,7.94
2017-12-13T09:36:16.374Z,7.99
2017-12-13T09:37:16.396Z,8.30
2017-12-13T09:38:16.460Z,8.25
2017-12-13T09:39:16.498Z,8.32
2017-12-13T09:40:16.543Z,8.03
2017-12-13T09:41:16.596Z,7.97
2017-12-13T09:42:16.644Z,8.02
2017-12-13T09:43:16.705Z,8.02
2017-12-13T09:44:16.740Z,8.17
2017-12-13T09:45:16.789Z,8.26
2017-12-13T09:46:16.854Z,8.51
2017-12-13T09:47:16.890Z,8.86
2017-12-13T09:48:16.939Z,9.21
2017-12-13T09:49:17.002Z,9.53
2017-12-13T09:50:17.036Z,9.81
2017-12-13T09:51:17.089Z,10.04
2017-12-13T09:52:17.139Z,9.96
2017-12-13T09:53:17.187Z,9.96
2017-12-13T09:54:17.251Z,9.85
2017-12-13T09:55:17.287Z,9.93
2017-12-13T09:56:17.337Z,9.88
2017-12-13T09:57:17.402Z,9.82
2017-12-13T09:58:17.437Z,9.71
2017-12-13T09:59:17.500Z,9.58
2017-12-13T10:00:17.543Z,9.68
2017-12-13T10:01:17.588Z,9.89
2017-12-13T10:02:17.638Z,9.99
2017-12-13T10:03:17.689Z,10.15
2017-12-13T10:04:17.759Z,10.32
2017-12-13T10:05:17.792Z,9.78
2017-12-13T10:06:17.841Z,9.06
2017-12-13T10:07:17.894Z,9.21
2017-12-13T10:08:17.965Z,9.20
2017-12-13T10:09:17.996Z,9.38
2017-12-13T10:10:18.046Z,9.10
2017-12-13T10:11:18.097Z,8.84
2017-12-13T10:12:18.150Z,8.30
2017-12-13T10:13:18.215Z,7.94
2017-12-13T10:14:18.248Z,8.22
2017-12-13T10:15:18.314Z,8.58
2017-12-13T10:16:18.348Z,9.02
2017-12-13T10:17:18.402Z,9.49
2017-12-13T10:18:18.466Z,9.50
2017-12-13T10:19:18.497Z,9.34
2017-12-13T10:20:18.566Z,9.70
2017-12-13T10:21:18.604Z,9.79
2017-12-13T10:22:18.652Z,9.75
2017-12-13T10:23:18.699Z,9.70
2017-12-13T10:24:18.751Z,9.81
2017-12-13T10:25:18.819Z,9.86
2017-12-13T10:26:18.853Z,9.30
2017-12-13T10:27:18.901Z,8.51
2017-12-13T10:28:18.959Z,7.66
2017-12-13T10:29:19.004Z,7.16
2017-12-13T10:30:19.067Z,7.15
2017-12-13T10:31:19.102Z,7.31
2017-12-13T10:32:19.150Z,7.23
2017-12-13T10:33:19.200Z,7.23
2017-12-13T10:34:19.264Z,6.90
2017-12-13T10:35:19.302Z,6.80
2017-12-13T10:36:19.368Z,6.58
2017-12-13T10:37:19.395Z,6.71
2017-12-13T10:38:19.442Z,6.90
2017-12-13T10:39:19.489Z,7.17
2017-12-13T10:40:19.597Z,7.08
2017-12-13T10:41:19.603Z,7.22
2017-12-13T10:42:19.634Z,7.15
2017-12-13T10:43:19.679Z,7.20
2017-12-13T10:44:19.757Z,7.26
2017-12-13T10:45:19.773Z,7.40
2017-12-13T10:46:19.823Z,7.32
2017-12-13T10:47:19.868Z,7.40
2017-12-13T10:48:19.911Z,7.23
2017-12-13T10:49:19.974Z,7.16
2017-12-13T10:50:20.006Z,6.98
2017-12-13T10:51:20.074Z,6.54
2017-12-13T10:52:20.098Z,6.40
2017-12-13T10:53:20.141Z,6.16
2017-12-13T10:54:20.188Z,6.14
2017-12-13T10:55:20.234Z,6.04
2017-12-13T10:56:20.293Z,5.91
2017-12-13T10:57:20.323Z,6.14
2017-12-13T10:58:20.369Z,6.38
2017-12-13T10:59:20.414Z,6.47
2017-12-13T11:00:20.463Z,6.43
2017-12-13T11:01:20.519Z,6.48
2017-12-13T11:02:20.549Z,6.38
2017-12-13T11:03:20.592Z,5.95
2017-12-13T11:04:20.638Z,5.68
2017-12-13T11:05:20.692Z,5.52
2017-12-13T11:06:20.745Z,5.59
2017-12-13T11:07:20.770Z,5.52
2017-12-13T11:08:20.818Z,5.66
2017-12-13T11:09:20.857Z,5.88
2017-12-13T11:10:20.914Z,5.91
2017-12-13T11:11:20.967Z,5.92
2017-12-13T11:12:21.011Z,5.91
2017-12-13T11:13:21.036Z,5.88
2017-12-13T11:14:21.082Z,6.01
2017-12-13T11:15:21.122Z,5.81
2017-12-13T11:16:21.168Z,5.95
2017-12-13T11:17:21.225Z,5.86
2017-12-13T11:18:21.258Z,5.68
2017-12-13T11:19:21.310Z,5.57
2017-12-13T11:20:21.346Z,5.48
2017-12-13T11:21:21.387Z,5.46
2017-12-13T11:22:21.448Z,5.53
2017-12-13T11:23:21.474Z,5.57
2017-12-13T11:24:21.541Z,5.52
2017-12-13T11:25:21.562Z,5.52
2017-12-13T11:26:21.606Z,5.52
2017-12-13T11:27:21.667Z,5.56
2017-12-13T11:28:21.698Z,5.53
2017-12-13T11:29:21.740Z,5.56
2017-12-13T11:30:21.787Z,5.68
2017-12-13T11:31:21.827Z,5.66
2017-12-13T11:32:21.929Z,5.59
2017-12-13T11:33:21.931Z,5.70
2017-12-13T11:34:21.954Z,5.73
2017-12-13T11:35:21.998Z,5.75
2017-12-13T11:36:22.043Z,5.81
2017-12-13T11:37:22.086Z,5.75
2017-12-13T11:38:22.157Z,5.82
2017-12-13T11:39:22.176Z,5.91
2017-12-13T11:40:22.215Z,5.85
2017-12-13T11:41:22.259Z,5.89
2017-12-13T11:42:22.298Z,5.91
2017-12-13T11:43:22.361Z,5.95
2017-12-13T11:44:22.410Z,5.92
2017-12-13T11:45:22.435Z,5.85
2017-12-13T11:46:22.477Z,5.78
2017-12-13T11:47:22.519Z,5.81
2017-12-13T11:48:22.562Z,5.83
2017-12-13T11:49:22.624Z,5.83
2017-12-13T11:50:22.648Z,5.70
2017-12-13T11:51:22.695Z,5.59
2017-12-13T11:52:22.740Z,5.73
2017-12-13T11:53:22.779Z,5.68
2017-12-13T11:54:22.845Z,5.71
2017-12-13T11:55:22.868Z,5.66
2017-12-13T11:56:22.910Z,5.78
2017-12-13T11:57:22.959Z,5.86
2017-12-13T11:58:22.999Z,5.83
2017-12-13T11:59:23.057Z,5.95
2017-12-13T12:00:23.086Z,5.88
2017-12-13T12:01:23.128Z,5.92
2017-12-13T12:02:23.171Z,5.78
2017-12-13T12:03:23.215Z,5.70
2017-12-13T12:04:23.278Z,5.56
2017-12-13T12:05:23.301Z,5.60
2017-12-13T12:06:23.362Z,5.55
2017-12-13T12:07:23.388Z,5.63
2017-12-13T12:08:23.434Z,5.71
2017-12-13T12:09:23.495Z,5.73
2017-12-13T12:10:23.520Z,5.64
2017-12-13T12:11:23.561Z,5.67
2017-12-13T12:12:23.604Z,5.70
2017-12-13T12:13:23.648Z,5.88
2017-12-13T12:14:23.714Z,5.85
2017-12-13T12:15:23.738Z,5.83
2017-12-13T12:16:23.804Z,5.93
2017-12-13T12:17:23.824Z,5.92
2017-12-13T12:18:23.867Z,5.98
2017-12-13T12:19:23.914Z,6.13
2017-12-13T12:20:23.952Z,6.10
2017-12-13T12:21:24.012Z,6.04
2017-12-13T12:22:24.040Z,6.06
2017-12-13T12:23:24.083Z,5.96
2017-12-13T12:24:24.129Z,6.01
2017-12-13T12:25:24.176Z,6.04
2017-12-13T12:26:24.234Z,6.01
2017-12-13T12:27:24.259Z,6.09
2017-12-13T12:28:24.312Z,6.13
2017-12-13T12:29:24.349Z,6.11
2017-12-13T12:30:24.391Z,6.06
2017-12-13T12:31:24.450Z,6.03
2017-12-13T12:32:24.478Z,6.09
2017-12-13T12:33:24.523Z,6.14
2017-12-13T12:34:24.569Z,6.01
2017-12-13T12:35:24.611Z,6.01
2017-12-13T12:36:24.678Z,6.13
2017-12-13T12:37:24.698Z,6.01
2017-12-13T12:38:24.755Z,5.96
2017-12-13T12:39:24.786Z,5.93
2017-12-13T12:40:24.833Z,6.07
2017-12-13T12:41:24.896Z,6.10
2017-12-13T12:42:24.919Z,6.14
2017-12-13T12:43:24.965Z,6.16
2017-12-13T12:44:25.014Z,6.26
2017-12-13T12:45:25.056Z,6.30
2017-12-13T12:46:25.111Z,6.35
2017-12-13T12:47:25.139Z,6.30
2017-12-13T12:48:25.184Z,6.48
2017-12-13T12:49:25.232Z,6.41
2017-12-13T12:50:25.279Z,6.58
2017-12-13T12:51:25.335Z,6.62
2017-12-13T12:52:25.361Z,6.63
2017-12-13T12:53:25.406Z,6.69
2017-12-13T12:54:25.495Z,6.66
2017-12-13T12:55:25.497Z,6.68
2017-12-13T12:56:25.558Z,6.61
2017-12-13T12:57:25.586Z,6.59
2017-12-13T12:58:25.632Z,6.58
2017-12-13T12:59:25.682Z,6.43
2017-12-13T13:00:25.717Z,6.44
2017-12-13T13:01:25.783Z,6.44
2017-12-13T13:02:26.826Z,6.41
2017-12-13T13:03:25.858Z,6.56
2017-12-13T13:04:25.895Z,6.46
2017-12-13T13:05:25.946Z,6.40